Time;durP1;ratioP1;P1;durP2;ratioP2;P2;SDS_P1;SDS_P2;PMS_P1;PMS_P2;Temp;Humidity;BMP_temperature;BMP_pressure;BME280_temperature;BME280_humidity;BME280_pressure;Samples;Min_cycle;Max_cycle;Signal;HPM_P1;HPM_P2
2022/12/12 00:00:05;;;;;;;6.80;4.32;;;;;;;3.95;74.98;93530.06;5031438;28;20041;-69
2022/12/12 00:02:30;;;;;;;6.68;4.75;;;;;;;3.97;75.16;93529.03;5047125;28;20553;-70
2022/12/12 00:04:56;;;;;;;7.57;5.18;;;;;;;3.97;75.40;93526.44;5047973;28;20037;-69
2022/12/12 00:07:21;;;;;;;6.70;4.78;;;;;;;3.99;75.30;93542.59;5031327;28;20036;-70
2022/12/12 00:09:47;;;;;;;8.25;4.72;;;;;;;3.78;75.33;93539.88;5045887;28;20040;-69
2022/12/12 00:12:12;;;;;;;6.30;4.13;;;;;;;3.28;72.91;93512.91;5032460;28;20017;-69
2022/12/12 00:14:38;;;;;;;7.32;3.88;;;;;;;3.60;73.28;93533.59;5014907;28;20404;-69
2022/12/12 00:17:03;;;;;;;6.85;4.50;;;;;;;3.58;74.93;93549.13;5014760;28;20372;-69
2022/12/12 00:19:29;;;;;;;5.85;4.00;;;;;;;3.34;75.41;93558.66;5032602;28;20400;-70
2022/12/12 00:21:54;;;;;;;5.40;4.07;;;;;;;3.29;75.76;93566.72;5049655;28;20029;-70
2022/12/12 00:24:20;;;;;;;5.50;4.00;;;;;;;3.25;75.78;93574.75;5052202;28;20454;-70
2022/12/12 00:26:46;;;;;;;5.88;3.92;;;;;;;3.31;76.04;93566.59;5017672;28;20032;-69
2022/12/12 00:29:12;;;;;;;6.00;3.83;;;;;;;3.35;76.32;93560.31;5029276;28;20090;-69
2022/12/12 00:31:37;;;;;;;5.75;3.88;;;;;;;3.47;75.83;93572.22;5031752;28;20038;-70
2022/12/12 00:34:02;;;;;;;7.75;4.43;;;;;;;3.46;76.03;93557.75;5032273;28;20511;-70
2022/12/12 00:36:29;;;;;;;5.30;3.90;;;;;;;3.40;75.92;93537.69;5029231;28;20503;-70
2022/12/12 00:38:54;;;;;;;5.60;3.95;;;;;;;3.48;76.39;93550.75;5030920;28;20030;-69
2022/12/12 00:41:20;;;;;;;5.32;3.80;;;;;;;3.53;75.94;93558.91;5014119;28;20120;-69
2022/12/12 00:43:46;;;;;;;6.57;3.75;;;;;;;3.58;75.83;93554.25;5026876;28;20036;-70
2022/12/12 00:46:15;;;;;;;6.20;3.90;;;;;;;3.43;75.29;93545.16;5049584;28;20037;-69
2022/12/12 00:48:41;;;;;;;4.47;3.47;;;;;;;3.61;74.36;93562.66;5017555;28;20024;-70
2022/12/12 00:51:08;;;;;;;4.35;3.17;;;;;;;3.58;74.54;93550.88;5050478;28;20091;-69
2022/12/12 00:53:34;;;;;;;4.93;3.47;;;;;;;3.55;74.33;93557.06;5050619;28;20029;-69
2022/12/12 00:55:59;;;;;;;5.05;3.50;;;;;;;3.55;74.25;93557.06;5037335;28;20036;-70
2022/12/12 00:58:25;;;;;;;5.30;3.60;;;;;;;3.44;73.99;93540.81;5031843;28;20026;-69
2022/12/12 01:00:50;;;;;;;4.85;3.40;;;;;;;3.56;73.73;93565.56;5030323;28;20045;-69
2022/12/12 01:03:16;;;;;;;4.93;3.25;;;;;;;3.43;74.09;93552.84;4997478;28;20427;-69
2022/12/12 01:05:41;;;;;;;5.40;3.50;;;;;;;3.40;74.35;93581.31;5013906;28;20049;-69
2022/12/12 01:08:07;;;;;;;5.32;3.72;;;;;;;3.38;74.73;93579.81;5013738;28;20026;-69
2022/12/12 01:10:33;;;;;;;6.78;5.00;;;;;;;3.25;75.01;93556.78;5031737;28;20388;-69
2022/12/12 01:12:58;;;;;;;7.55;5.07;;;;;;;3.20;75.55;93571.69;5013768;28;20104;-69
2022/12/12 01:15:25;;;;;;;10.27;4.30;;;;;;;3.43;75.07;93591.38;5030162;28;20034;-69
2022/12/12 01:17:50;;;;;;;25.75;12.65;;;;;;;3.44;75.45;93566.50;5031274;28;20128;-69
2022/12/12 01:20:22;;;;;;;15.82;9.82;;;;;;;3.47;75.86;93577.34;5031174;28;20120;-69
2022/12/12 01:22:47;;;;;;;;;;;;;;;3.55;75.01;93577.59;5014571;28;20033;-69
2022/12/12 01:25:13;;;;;;;9.85;7.25;;;;;;;3.49;74.41;93575.50;5030158;28;19917;-69
2022/12/12 01:27:38;;;;;;;12.85;9.20;;;;;;;3.31;74.89;93575.09;5031107;28;20033;-69
2022/12/12 01:30:04;;;;;;;13.48;9.10;;;;;;;2.99;76.12;93556.13;5029898;28;20053;-69
2022/12/12 01:32:30;;;;;;;11.75;8.80;;;;;;;3.23;75.32;93574.88;5030039;28;20128;-69
2022/12/12 01:34:55;;;;;;;13.18;9.45;;;;;;;3.24;75.54;93568.00;5029851;28;20551;-69
2022/12/12 01:37:21;;;;;;;18.23;11.38;;;;;;;3.34;75.70;93574.91;5030878;28;20033;-69
2022/12/12 01:39:46;;;;;;;20.00;11.15;;;;;;;3.29;75.39;93559.00;5029506;28;20037;-69
2022/12/12 01:42:13;;;;;;;17.23;10.70;;;;;;;3.29;75.31;93565.91;5029465;28;20572;-69
2022/12/12 01:44:40;;;;;;;15.73;10.60;;;;;;;3.24;75.22;93570.56;5049747;28;20120;-70
2022/12/12 01:47:05;;;;;;;13.35;9.38;;;;;;;3.30;74.82;93583.75;5049548;28;20145;-69
2022/12/12 01:49:32;;;;;;;14.82;10.48;;;;;;;3.28;74.39;93571.94;5044007;28;20038;-69
2022/12/12 01:52:06;;;;;;;14.20;10.88;;;;;;;3.35;74.18;93598.81;5029636;28;20041;-69
2022/12/12 01:54:33;;;;;;;14.30;10.40;;;;;;;3.33;74.38;93596.34;5029832;28;20124;-69
2022/12/12 01:57:01;;;;;;;13.77;9.90;;;;;;;3.25;74.39;93593.53;5013175;28;20061;-69
2022/12/12 01:59:27;;;;;;;14.30;9.82;;;;;;;2.96;74.76;93584.59;5005785;28;20184;-69
2022/12/12 02:01:53;;;;;;;15.32;9.57;;;;;;;3.02;74.59;93599.53;5012941;28;20058;-69
2022/12/12 02:04:19;;;;;;;13.25;9.18;;;;;;;3.03;74.78;93593.47;5029790;28;20026;-69
2022/12/12 02:06:44;;;;;;;14.10;9.57;;;;;;;2.97;74.53;93594.72;5029443;28;20120;-69
2022/12/12 02:09:11;;;;;;;12.18;8.77;;;;;;;2.87;74.80;93596.31;5013311;28;20124;-69
2022/12/12 02:11:41;;;;;;;13.95;9.90;;;;;;;2.94;74.82;93612.09;5029430;28;20033;-69
2022/12/12 02:14:07;;;;;;;18.13;12.18;;;;;;;2.78;74.19;93614.94;5031311;28;20036;-69
2022/12/12 02:17:30;;;;;;;18.52;12.27;;;;;;;2.50;74.69;93593.81;5000176;28;20037;-69
2022/12/12 02:20:32;;;;;;;21.60;10.98;;;;;;;2.43;74.68;93623.38;5031621;28;20033;-69
2022/12/12 02:23:07;;;;;;;17.90;11.05;;;;;;;2.45;74.57;93624.06;5047925;28;20541;-70
2022/12/12 02:26:07;;;;;;;17.08;10.75;;;;;;;2.44;74.87;93618.13;5043281;28;20073;-70
2022/12/12 02:29:10;;;;;;;17.23;10.95;;;;;;;2.59;74.45;93628.22;5029437;28;20123;-69
2022/12/12 02:31:45;;;;;;;14.98;9.88;;;;;;;2.46;74.13;93628.28;5029495;28;20079;-70
2022/12/12 02:34:23;;;;;;;17.85;10.57;;;;;;;2.38;74.24;93635.69;5030733;28;20126;-69
2022/12/12 02:36:51;;;;;;;17.77;11.38;;;;;;;2.31;74.31;93613.97;5029194;28;20129;-69
2022/12/12 02:39:20;;;;;;;15.77;10.88;;;;;;;2.38;73.62;93628.81;5029383;28;20056;-69
2022/12/12 02:42:25;;;;;;;13.25;10.32;;;;;;;2.28;74.40;93624.44;5030344;28;20536;-69
2022/12/12 02:44:56;;;;;;;16.48;10.57;;;;;;;2.35;73.91;93630.78;5036931;28;20079;-69
2022/12/12 02:47:31;;;;;;;15.35;10.30;;;;;;;2.29;73.91;93637.16;5012787;28;20091;-69
2022/12/12 02:50:02;;;;;;;17.73;10.50;;;;;;;2.29;74.64;93636.34;5029156;28;20484;-69
2022/12/12 02:52:27;;;;;;;17.02;11.02;;;;;;;2.20;75.00;93633.50;5029279;28;20080;-69
2022/12/12 02:54:53;;;;;;;16.60;10.57;;;;;;;2.21;75.00;93637.69;4999928;28;20034;-69
2022/12/12 02:57:21;;;;;;;25.08;15.13;;;;;;;2.16;75.44;93624.34;5033721;28;20049;-69
2022/12/12 02:59:50;;;;;;;77.65;39.13;;;;;;;2.06;76.00;93612.28;5032435;28;20041;-70
2022/12/12 03:02:35;;;;;;;38.47;21.40;;;;;;;2.15;76.07;93611.66;5032337;28;20025;-70
2022/12/12 03:08:36;;;;;;;18.13;10.38;;;;;;;2.17;76.12;93617.47;5053853;28;20194;-69
2022/12/12 03:11:09;;;;;;;12.98;9.05;;;;;;;2.24;76.50;93608.47;5048493;28;20072;-69
2022/12/12 03:13:54;;;;;;;11.90;8.55;;;;;;;2.24;76.28;93614.41;5034150;28;20079;-69
2022/12/12 03:16:35;;;;;;;15.70;10.60;;;;;;;2.20;76.30;93607.03;5016277;28;20048;-69
2022/12/12 03:19:08;;;;;;;17.33;11.20;;;;;;;2.23;76.76;93604.28;5033469;28;20034;-69
2022/12/12 03:21:42;;;;;;;18.73;11.50;;;;;;;2.33;76.71;93609.56;5012701;28;20296;-69
2022/12/12 03:24:28;;;;;;;25.08;15.63;;;;;;;2.03;76.41;93608.19;5032498;28;20109;-69
2022/12/12 03:26:57;;;;;;;25.25;14.13;;;;;;;2.01;76.55;93603.19;5033160;28;20103;-70
2022/12/12 03:29:28;;;;;;;24.45;14.07;;;;;;;1.82;76.77;93595.13;5032244;28;20486;-69
2022/12/12 03:31:57;;;;;;;83.05;31.63;;;;;;;1.85;77.20;93601.78;5015696;28;20033;-70
2022/12/12 03:34:29;;;;;;;40.88;19.23;;;;;;;1.86;77.27;93626.44;5015764;28;20041;-70
2022/12/12 03:37:14;;;;;;;20.40;12.05;;;;;;;1.94;77.51;93624.19;4999275;28;20029;-69
2022/12/12 03:39:44;;;;;;;19.05;12.65;;;;;;;1.88;77.76;93616.94;5017046;28;20060;-69
2022/12/12 03:43:08;;;;;;;15.98;9.55;;;;;;;1.50;78.40;93625.44;5015240;28;20045;-69
2022/12/12 03:45:55;;;;;;;18.58;11.55;;;;;;;1.55;78.06;93641.31;5010306;28;20161;-69
2022/12/12 03:48:32;;;;;;;16.20;10.38;;;;;;;1.39;78.61;93623.56;5008378;28;20097;-70
2022/12/12 03:51:03;;;;;;;20.80;11.95;;;;;;;1.37;78.31;93633.13;5011983;28;20115;-69
2022/12/12 03:53:43;;;;;;;15.98;10.07;;;;;;;1.71;77.85;93641.94;5031888;28;20483;-69
2022/12/12 03:56:28;;;;;;;19.33;11.13;;;;;;;1.75;77.39;93643.34;5031484;28;20546;-69
2022/12/12 03:59:10;;;;;;;16.48;10.60;;;;;;;1.60;76.93;93656.38;5031765;28;20029;-69
2022/12/12 04:01:41;;;;;;;17.60;10.88;;;;;;;1.42;77.81;93651.56;5031404;28;20507;-69
2022/12/12 04:04:20;;;;;;;14.30;8.90;;;;;;;1.28;77.42;93654.16;5015315;28;20557;-69
2022/12/12 04:06:50;;;;;;;12.52;7.68;;;;;;;1.33;77.33;93658.06;5031342;28;20052;-69
2022/12/12 04:15:21;;;;;;;26.92;11.57;;;;;;;1.49;76.12;93651.94;5017817;28;20053;-69
2022/12/12 04:18:17;;;;;;;13.73;8.18;;;;;;;1.53;76.54;93656.78;5014575;28;20032;-69
2022/12/12 04:24:01;;;;;;;15.13;9.30;;;;;;;1.63;75.44;93662.09;5022909;28;20415;-69
2022/12/12 04:27:06;;;;;;;13.70;8.55;;;;;;;1.55;76.34;93672.03;5031041;28;20057;-69
2022/12/12 04:29:48;;;;;;;19.20;12.63;;;;;;;1.49;76.15;93669.88;5031185;28;20032;-69
2022/12/12 04:32:20;;;;;;;14.85;9.82;;;;;;;1.47;76.42;93664.03;5030825;28;20094;-69
2022/12/12 04:34:51;;;;;;;18.25;10.88;;;;;;;1.39;76.05;93663.72;5015831;28;20034;-69
2022/12/12 04:37:19;;;;;;;20.30;11.70;;;;;;;1.51;76.14;93684.22;5030829;28;20103;-69
2022/12/12 04:39:46;;;;;;;84.28;33.20;;;;;;;1.49;76.47;93688.59;5014414;28;20483;-69
2022/12/12 04:42:13;;;;;;;66.03;27.48;;;;;;;1.44;76.26;93677.03;5014372;28;20030;-69
2022/12/12 04:44:39;;;;;;;34.03;14.85;;;;;;;1.52;76.09;93685.84;5014533;28;20029;-69
2022/12/12 04:47:04;;;;;;;25.33;13.77;;;;;;;1.51;76.01;93676.53;5014197;28;20542;-69
2022/12/12 04:49:30;;;;;;;12.25;7.97;;;;;;;1.49;75.91;93683.47;5014272;28;20040;-69
2022/12/12 04:51:59;;;;;;;17.35;9.18;;;;;;;1.43;76.01;93672.84;5020098;28;20040;-69
2022/12/12 04:54:41;;;;;;;17.85;8.95;;;;;;;1.30;76.19;93658.25;5014386;28;20032;-69
2022/12/12 04:57:08;;;;;;;12.27;7.75;;;;;;;1.44;75.98;93669.34;4998446;28;20060;-69
2022/12/12 04:59:33;;;;;;;14.63;8.57;;;;;;;1.41;76.31;93672.13;4997583;28;20033;-69
2022/12/12 05:02:23;;;;;;;13.75;8.20;;;;;;;1.52;75.70;93669.66;5015080;28;20030;-69
2022/12/12 05:04:56;;;;;;;17.95;10.75;;;;;;;1.32;76.65;93656.44;5049929;28;20032;-69
2022/12/12 05:07:29;;;;;;;14.23;9.10;;;;;;;1.45;76.81;93665.84;5049565;28;20032;-69
2022/12/12 05:09:54;;;;;;;15.10;9.85;;;;;;;1.65;76.08;93667.13;5014118;28;20033;-69
2022/12/12 05:12:19;;;;;;;14.32;9.40;;;;;;;1.56;76.25;93678.78;5017674;28;20040;-69
2022/12/12 05:14:45;;;;;;;12.68;8.73;;;;;;;1.47;76.50;93664.84;5030139;28;20034;-69
2022/12/12 05:17:12;;;;;;;22.63;15.85;;;;;;;1.42;76.43;93681.41;5029608;28;20037;-69
2022/12/12 05:19:38;;;;;;;35.38;21.83;;;;;;;1.50;76.76;93687.66;5029945;28;20040;-69
2022/12/12 05:22:03;;;;;;;28.65;17.58;;;;;;;1.59;76.42;93686.28;5049878;28;20045;-69
2022/12/12 05:24:30;;;;;;;17.30;11.18;;;;;;;1.52;77.00;93682.47;5051562;28;20028;-69
2022/12/12 05:26:57;;;;;;;17.23;11.02;;;;;;;1.52;76.03;93680.72;5046525;28;20419;-69
2022/12/12 05:29:22;;;;;;;14.35;9.02;;;;;;;1.57;76.21;93688.09;5013824;28;20037;-69
2022/12/12 05:31:48;;;;;;;14.38;9.20;;;;;;;1.59;76.53;93688.00;5031012;28;20033;-69
2022/12/12 05:34:13;;;;;;;14.63;8.90;;;;;;;1.42;76.09;93668.63;5029838;28;20040;-69
2022/12/12 05:36:39;;;;;;;17.80;9.82;;;;;;;1.67;76.26;93691.72;5035477;28;20487;-69
2022/12/12 05:39:04;;;;;;;15.90;9.85;;;;;;;1.64;76.43;93686.78;5046415;28;20033;-68
2022/12/12 05:41:29;;;;;;;17.30;10.43;;;;;;;1.58;76.33;93692.31;5039798;28;20034;-69
2022/12/12 05:43:55;;;;;;;15.23;9.60;;;;;;;1.54;76.99;93680.63;5039833;28;20037;-68
2022/12/12 05:46:20;;;;;;;16.73;10.00;;;;;;;1.63;76.84;93697.94;5034312;28;20419;-68
2022/12/12 05:48:49;;;;;;;17.23;11.27;;;;;;;1.67;76.44;93696.84;5034578;28;20072;-68
2022/12/12 05:51:18;;;;;;;21.23;11.85;;;;;;;1.78;76.32;93691.81;5033194;28;20021;-68
2022/12/12 05:53:44;;;;;;;15.23;9.48;;;;;;;1.63;76.69;93676.66;5015944;28;20057;-68
2022/12/12 05:56:10;;;;;;;19.60;11.70;;;;;;;1.68;76.81;93662.63;5033780;28;20432;-68
2022/12/12 05:58:36;;;;;;;50.88;23.50;;;;;;;1.67;76.23;93662.72;5047195;28;20511;-68
2022/12/12 06:01:02;;;;;;;37.08;20.17;;;;;;;1.77;76.65;93692.72;5045663;28;20040;-68
2022/12/12 06:03:28;;;;;;;35.67;17.05;;;;;;;1.75;77.34;93704.81;5042785;28;20044;-69
2022/12/12 06:05:53;;;;;;;37.05;16.27;;;;;;;1.82;77.26;93700.13;5044991;28;20021;-68
2022/12/12 06:08:19;;;;;;;24.00;12.75;;;;;;;1.90;77.23;93668.88;5043753;28;20033;-68
2022/12/12 06:10:44;;;;;;;64.60;26.67;;;;;;;1.82;77.64;93684.75;5020185;28;20507;-68
2022/12/12 06:13:10;;;;;;;45.80;20.42;;;;;;;1.83;77.63;93691.50;5041619;28;20503;-68
2022/12/12 06:15:38;;;;;;;36.28;20.10;;;;;;;1.79;77.86;93698.56;5046309;28;20028;-68
2022/12/12 06:18:03;;;;;;;35.60;18.92;;;;;;;1.93;77.41;93699.41;5029480;28;20033;-69
2022/12/12 06:20:29;;;;;;;27.27;14.93;;;;;;;2.01;77.97;93717.66;5029418;28;20068;-69
2022/12/12 06:22:55;;;;;;;27.90;15.60;;;;;;;2.08;77.55;93710.34;5034089;28;20498;-69
2022/12/12 06:25:20;;;;;;;22.35;12.82;;;;;;;2.07;77.19;93721.53;5032520;28;20056;-68
2022/12/12 06:27:46;;;;;;;51.53;25.42;;;;;;;2.09;77.55;93724.78;5032547;28;20483;-68
2022/12/12 06:30:11;;;;;;;68.40;37.67;;;;;;;2.14;76.94;93736.38;5033122;28;20087;-68
2022/12/12 06:32:37;;;;;;;63.30;35.53;;;;;;;2.27;76.18;93730.44;5043774;28;20502;-68
2022/12/12 06:35:03;;;;;;;61.65;34.78;;;;;;;2.29;76.23;93738.84;5042400;28;20021;-68
2022/12/12 06:37:28;;;;;;;73.00;43.25;;;;;;;2.27;76.76;93733.81;5043909;28;20503;-68
2022/12/12 06:39:53;;;;;;;53.13;31.83;;;;;;;2.26;76.98;93751.84;5044257;28;20029;-68
2022/12/12 06:42:19;;;;;;;55.22;35.67;;;;;;;2.29;76.67;93743.97;5025998;28;20239;-68
2022/12/12 06:44:44;;;;;;;70.28;41.50;;;;;;;2.17;77.02;93727.66;5022713;28;20048;-68
2022/12/12 06:47:10;;;;;;;63.72;38.63;;;;;;;2.07;77.53;93706.16;5037341;28;20411;-68
2022/12/12 06:49:35;;;;;;;67.40;42.08;;;;;;;2.36;76.61;93760.56;5047895;28;20021;-68
2022/12/12 06:52:01;;;;;;;74.45;44.33;;;;;;;2.28;77.35;93755.13;5045340;28;20037;-68
2022/12/12 06:54:26;;;;;;;96.75;52.08;;;;;;;2.42;76.80;93762.72;5046917;28;20034;-69
2022/12/12 06:56:52;;;;;;;67.18;40.08;;;;;;;2.37;76.42;93763.03;5044409;28;20439;-68
2022/12/12 06:59:17;;;;;;;70.88;41.33;;;;;;;2.42;76.50;93770.41;5046845;28;20032;-69
2022/12/12 07:01:43;;;;;;;57.70;34.28;;;;;;;2.19;76.92;93765.09;5049383;28;20044;-68
2022/12/12 07:04:10;;;;;;;47.08;29.05;;;;;;;2.16;76.74;93775.53;5010915;28;20033;-68
2022/12/12 07:06:35;;;;;;;49.88;29.98;;;;;;;2.15;77.33;93773.91;5027771;28;20024;-68
2022/12/12 07:09:01;;;;;;;43.10;26.52;;;;;;;1.99;77.49;93778.41;5047248;28;20033;-69
2022/12/12 07:11:27;;;;;;;37.30;24.52;;;;;;;2.12;77.83;93774.13;5035190;28;20025;-68
2022/12/12 07:13:53;;;;;;;35.47;22.27;;;;;;;2.09;78.09;93779.44;5047881;28;20029;-69
2022/12/12 07:16:19;;;;;;;149.15;48.63;;;;;;;2.32;77.63;93785.59;5029394;28;20033;-69
2022/12/12 07:18:44;;;;;;;28.42;17.85;;;;;;;2.37;77.68;93777.59;5028631;28;20038;-70
2022/12/12 07:21:12;;;;;;;65.63;27.83;;;;;;;2.39;77.78;93766.31;5048441;28;20040;-68
2022/12/12 07:23:37;;;;;;;71.05;31.80;;;;;;;2.74;76.70;93768.22;5031759;28;20138;-70
2022/12/12 07:26:09;;;;;;;53.60;25.40;;;;;;;2.93;76.31;93780.59;5043373;28;20520;-69
2022/12/12 07:28:36;;;;;;;48.85;27.73;;;;;;;3.03;75.57;93780.78;5049370;28;20032;-69
2022/12/12 07:31:06;;;;;;;39.13;23.77;;;;;;;3.00;75.65;93797.19;5037689;28;20499;-71
2022/12/12 07:33:31;;;;;;;37.05;22.63;;;;;;;3.16;75.67;93812.34;5030565;28;20057;-70
2022/12/12 07:35:58;;;;;;;32.55;18.90;;;;;;;3.18;75.21;93804.56;5031526;28;20037;-70
2022/12/12 07:38:24;;;;;;;28.45;17.98;;;;;;;3.36;74.52;93821.22;5047046;28;20033;-70
2022/12/12 07:40:49;;;;;;;40.53;27.05;;;;;;;3.35;74.57;93822.97;5040396;28;20033;-69
2022/12/12 07:43:14;;;;;;;54.63;38.60;;;;;;;3.52;73.39;93829.50;5038322;28;20461;-69
2022/12/12 07:45:43;;;;;;;54.08;36.55;;;;;;;3.46;74.19;93829.94;5035590;28;20057;-70
2022/12/12 07:48:09;;;;;;;42.75;27.73;;;;;;;3.33;74.98;93824.00;5036993;28;20025;-69
2022/12/12 07:50:34;;;;;;;35.88;23.00;;;;;;;3.02;74.83;93810.75;5034905;28;20036;-69
2022/12/12 07:52:59;;;;;;;27.77;18.63;;;;;;;3.17;74.89;93843.97;5041986;28;20037;-70
2022/12/12 07:55:25;;;;;;;31.27;21.92;;;;;;;3.34;74.52;93838.47;5030045;28;20064;-70
2022/12/12 07:57:52;;;;;;;31.92;20.73;;;;;;;3.30;74.91;93829.38;5034209;28;20527;-70
2022/12/12 08:00:18;;;;;;;38.05;23.23;;;;;;;3.31;74.67;93844.66;5029364;28;20068;-70
2022/12/12 08:02:43;;;;;;;38.72;23.45;;;;;;;3.17;75.67;93843.97;5031729;28;20108;-71
2022/12/12 08:05:09;;;;;;;38.13;23.15;;;;;;;3.28;75.96;93846.59;5032917;28;20030;-70
2022/12/12 08:07:34;;;;;;;44.70;26.92;;;;;;;3.51;74.89;93847.56;5031542;28;20033;-71
2022/12/12 08:10:00;;;;;;;40.97;25.50;;;;;;;3.54;75.47;93863.59;5031389;28;20033;-70
2022/12/12 08:12:28;;;;;;;41.75;24.70;;;;;;;3.49;75.22;93865.66;5031495;28;20038;-70
2022/12/12 08:14:53;;;;;;;34.42;20.45;;;;;;;3.39;74.66;93871.53;5031351;28;20032;-70
2022/12/12 08:17:19;;;;;;;34.35;21.98;;;;;;;3.34;75.05;93867.56;5031382;28;20033;-70
2022/12/12 08:19:44;;;;;;;32.88;20.40;;;;;;;3.34;75.29;93880.41;5032415;28;20030;-70
2022/12/12 08:22:10;;;;;;;36.40;22.35;;;;;;;3.33;75.31;93865.09;5032410;28;20045;-70
2022/12/12 08:24:35;;;;;;;36.65;21.10;;;;;;;3.54;74.71;93878.19;5032404;28;20498;-70
2022/12/12 08:27:01;;;;;;;37.22;22.80;;;;;;;3.65;73.69;93877.41;5032303;28;20033;-70
2022/12/12 08:29:26;;;;;;;33.72;20.73;;;;;;;3.48;74.55;93879.44;5032202;28;20029;-70
2022/12/12 08:31:52;;;;;;;36.35;22.23;;;;;;;3.52;74.04;93873.16;5032500;28;20041;-70
2022/12/12 08:34:17;;;;;;;38.33;23.70;;;;;;;3.42;74.61;93864.44;5031015;28;20507;-70
2022/12/12 08:36:44;;;;;;;36.70;21.63;;;;;;;3.57;74.72;93890.81;5031165;28;20502;-70
2022/12/12 08:39:11;;;;;;;41.78;24.13;;;;;;;3.66;74.09;93886.78;5014593;28;20057;-71
2022/12/12 08:41:38;;;;;;;38.67;22.70;;;;;;;3.53;74.69;93882.47;5030928;28;20057;-70
2022/12/12 08:44:04;;;;;;;43.83;23.92;;;;;;;3.51;75.01;93883.50;5014506;28;20119;-70
2022/12/12 08:46:29;;;;;;;38.42;24.17;;;;;;;3.69;74.55;93866.81;5032364;28;20080;-70
2022/12/12 08:48:55;;;;;;;40.63;23.38;;;;;;;3.85;74.40;93866.56;5030691;28;20419;-70
2022/12/12 08:51:20;;;;;;;37.90;23.05;;;;;;;4.05;73.31;93877.16;5031312;28;20029;-71
2022/12/12 08:53:46;;;;;;;36.30;22.38;;;;;;;4.12;72.98;93863.72;5030670;28;20668;-71
2022/12/12 08:56:12;;;;;;;36.83;23.48;;;;;;;4.15;72.46;93855.81;5030429;28;20381;-70
2022/12/12 08:58:38;;;;;;;41.20;25.13;;;;;;;4.28;72.50;93878.06;5014100;28;20047;-71
2022/12/12 09:01:09;;;;;;;47.42;28.25;;;;;;;4.42;72.23;93870.97;5031885;28;20468;-70
2022/12/12 09:03:34;;;;;;;41.08;25.65;;;;;;;4.41;72.01;93865.94;5031727;28;20116;-70
2022/12/12 09:05:59;;;;;;;37.58;24.75;;;;;;;4.47;71.04;93868.88;4997658;28;20044;-70
2022/12/12 09:08:25;;;;;;;42.33;25.05;;;;;;;4.30;72.20;93853.88;5030372;28;20102;-70
2022/12/12 09:10:50;;;;;;;40.00;24.95;;;;;;;4.28;72.54;93857.47;5013931;28;20052;-70
2022/12/12 09:13:16;;;;;;;58.67;33.92;;;;;;;4.41;72.31;93865.94;5030185;28;20034;-70
2022/12/12 09:15:41;;;;;;;53.30;30.40;;;;;;;4.46;72.55;93862.09;5013930;28;20048;-70
2022/12/12 09:18:07;;;;;;;52.42;32.22;;;;;;;4.36;72.02;93850.84;5031331;28;20095;-70
2022/12/12 09:20:32;;;;;;;53.90;32.55;;;;;;;4.38;72.69;93868.75;5030061;28;20037;-71
2022/12/12 09:22:58;;;;;;;58.88;36.20;;;;;;;4.56;72.32;93861.41;5030078;28;20041;-70
2022/12/12 09:25:23;;;;;;;46.45;27.42;;;;;;;4.53;72.83;93864.22;5029974;28;20045;-70
2022/12/12 09:27:49;;;;;;;42.17;25.30;;;;;;;4.58;72.60;93864.69;5029950;28;20033;-70
2022/12/12 09:30:15;;;;;;;41.90;26.95;;;;;;;4.59;72.70;93851.69;5030039;28;20045;-70
2022/12/12 09:32:41;;;;;;;38.67;24.27;;;;;;;4.73;71.75;93862.72;5030006;28;20033;-70
2022/12/12 09:35:06;;;;;;;45.38;26.58;;;;;;;4.81;72.08;93856.06;5030019;28;20038;-70
2022/12/12 09:37:32;;;;;;;39.03;24.52;;;;;;;4.82;72.06;93838.84;5013320;28;20025;-70
2022/12/12 09:39:57;;;;;;;41.53;24.58;;;;;;;4.83;71.88;93837.94;5029773;28;20479;-70
2022/12/12 09:42:25;;;;;;;44.17;25.85;;;;;;;4.73;72.64;93829.28;5030944;28;20025;-70
2022/12/12 09:44:52;;;;;;;41.08;25.85;;;;;;;4.78;73.45;93832.31;5029717;28;20132;-70
2022/12/12 09:47:22;;;;;;;42.63;26.60;;;;;;;4.86;73.63;93835.13;5013154;28;20029;-70
2022/12/12 09:49:52;;;;;;;40.70;26.05;;;;;;;4.90;73.25;93827.06;5013229;28;20052;-70
2022/12/12 09:52:32;;;;;;;45.42;27.50;;;;;;;5.01;73.89;93817.69;5029653;28;20431;-70
2022/12/12 09:54:58;;;;;;;38.40;24.45;;;;;;;5.14;74.00;93824.34;5029798;28;20041;-70
2022/12/12 09:57:32;;;;;;;45.35;26.33;;;;;;;5.17;74.21;93820.72;5029634;28;20569;-70
2022/12/12 10:00:09;;;;;;;88.28;43.80;;;;;;;5.18;74.69;93813.81;5013088;28;20037;-70
2022/12/12 10:02:59;;;;;;;58.33;31.15;;;;;;;5.32;74.77;93827.28;5017037;28;20060;-70
2022/12/12 10:05:39;;;;;;;76.30;38.47;;;;;;;5.38;74.37;93818.25;5037588;28;20112;-70
2022/12/12 10:08:37;;;;;;;44.40;27.55;;;;;;;5.48;73.93;93824.31;5036183;28;20095;-70
2022/12/12 10:11:05;;;;;;;48.10;27.30;;;;;;;5.52;73.76;93827.47;5038143;28;20496;-70
2022/12/12 10:13:31;;;;;;;50.63;31.95;;;;;;;5.43;74.14;93810.16;5019778;28;20025;-70
2022/12/12 10:16:03;;;;;;;40.63;23.20;;;;;;;5.60;72.61;93815.63;5036240;28;20107;-70
2022/12/12 10:18:40;;;;;;;41.80;27.95;;;;;;;5.68;73.27;93819.34;5019573;28;20037;-70
2022/12/12 10:21:08;;;;;;;46.13;27.20;;;;;;;5.71;73.30;93819.09;5036106;28;20041;-70
2022/12/12 10:23:38;;;;;;;41.90;26.88;;;;;;;5.88;72.51;93820.31;5019435;28;20025;-70
2022/12/12 10:26:19;;;;;;;39.70;24.42;;;;;;;5.87;73.01;93816.94;5036060;28;20061;-70
2022/12/12 10:28:45;;;;;;;;;;;;;;;5.97;71.74;93815.28;5036468;28;20120;-70
2022/12/12 10:31:31;;;;;;;32.40;19.20;;;;;;;6.02;69.68;93820.91;5036192;28;20273;-70
2022/12/12 10:34:21;;;;;;;28.10;18.02;;;;;;;6.11;69.25;93816.75;5037177;28;20041;-70
2022/12/12 10:37:20;;;;;;;29.60;18.35;;;;;;;6.13;70.17;93809.72;5036132;28;20098;-70
2022/12/12 10:39:54;;;;;;;20.45;12.50;;;;;;;6.16;68.57;93788.84;5037005;28;20468;-70
2022/12/12 10:42:40;;;;;;;20.20;13.00;;;;;;;6.13;67.76;93773.63;5035905;28;20029;-70
2022/12/12 10:45:56;;;;;;;23.20;13.95;;;;;;;6.10;67.79;93767.88;5019268;28;20107;-70
2022/12/12 10:48:21;;;;;;;24.02;14.52;;;;;;;6.17;68.57;93767.25;5038020;28;20411;-70
2022/12/12 10:50:51;;;;;;;25.98;16.67;;;;;;;6.12;68.40;93756.50;5023223;28;20056;-70
2022/12/12 10:53:17;;;;;;;26.23;16.92;;;;;;;6.07;70.05;93752.66;5035743;28;20025;-70
2022/12/12 10:55:50;;;;;;;25.90;16.48;;;;;;;6.16;71.12;93750.16;5035742;28;20112;-70
2022/12/12 10:58:16;;;;;;;33.10;21.42;;;;;;;6.14;70.75;93733.19;5035679;28;20045;-70
2022/12/12 11:00:43;;;;;;;29.63;18.48;;;;;;;5.81;71.52;93735.75;5019194;28;20060;-70
2022/12/12 11:03:27;;;;;;;34.72;20.40;;;;;;;5.92;72.03;93736.66;5035754;28;20491;-70
2022/12/12 11:05:54;;;;;;;32.22;20.42;;;;;;;6.06;72.06;93745.88;5035922;28;20461;-70
2022/12/12 11:08:26;;;;;;;33.90;20.90;;;;;;;6.18;72.34;93766.31;5035760;28;20033;-70
2022/12/12 11:11:18;;;;;;;33.63;22.02;;;;;;;6.21;72.85;93766.06;5035785;28;20096;-70
2022/12/12 11:13:55;;;;;;;33.13;21.15;;;;;;;6.31;72.46;93765.31;5033050;28;20120;-70
2022/12/12 11:16:21;;;;;;;30.20;20.17;;;;;;;6.22;72.82;93772.84;5032689;28;20033;-70
2022/12/12 11:19:11;;;;;;;29.20;19.42;;;;;;;6.23;72.68;93753.84;5015989;28;20037;-70
2022/12/12 11:21:38;;;;;;;25.92;17.98;;;;;;;6.36;71.22;93760.59;5034096;28;20068;-70
2022/12/12 11:24:23;;;;;;;26.77;18.48;;;;;;;6.49;71.04;93762.03;5032430;28;20056;-71
2022/12/12 11:26:55;;;;;;;27.40;18.33;;;;;;;6.14;71.64;93767.50;5015879;28;20030;-70
2022/12/12 11:29:39;;;;;;;27.05;17.13;;;;;;;6.18;71.92;93755.19;5032240;28;20136;-70
2022/12/12 11:32:10;;;;;;;25.80;17.15;;;;;;;6.30;71.58;93740.47;5032344;28;20021;-70
2022/12/12 11:34:36;;;;;;;26.38;16.73;;;;;;;5.89;71.34;93755.78;5032234;28;20163;-70
2022/12/12 11:37:02;;;;;;;22.33;15.10;;;;;;;6.09;71.41;93758.50;5032095;28;20092;-70
2022/12/12 11:39:31;;;;;;;23.80;15.90;;;;;;;6.20;71.09;93746.38;5032041;28;20030;-70
2022/12/12 11:42:04;;;;;;;24.75;16.27;;;;;;;6.24;71.31;93742.59;5031892;28;20139;-70
2022/12/12 11:44:34;;;;;;;26.73;16.80;;;;;;;6.29;70.34;93726.72;5033237;28;20025;-70
2022/12/12 11:47:37;;;;;;;27.17;17.33;;;;;;;6.05;71.03;93734.75;5015640;28;20503;-70
2022/12/12 11:50:14;;;;;;;24.70;15.95;;;;;;;6.15;71.33;93739.97;5031518;28;20053;-70
2022/12/12 11:52:40;;;;;;;24.35;16.10;;;;;;;6.23;71.07;93728.06;5031817;28;20053;-70
2022/12/12 11:55:05;;;;;;;25.45;16.50;;;;;;;6.33;69.72;93719.56;5031932;28;20553;-70